Time,TemperatureF,DewpointF,PressureIn,WindDirection,WindDirectionDegrees,WindSpeedMPH,WindSpeedGustMPH,Humidity,HourlyPrecipIn,Conditions,Clouds,dailyrainin,SoftwareType,DateUTC
2013-10-10 00:05:00,46.9,30.0,30.25,SSE,155,0.0,3.0,53,0.00,,,0.00,weatherlink.com 1.10,2013-10-10 06:05:00,
2013-10-10 00:20:00,48.3,31.0,30.27,SSE,155,0.0,0.0,51,0.00,,,0.00,weatherlink.com 1.10,2013-10-10 06:20:00,
2013-10-10 00:35:00,54.4,33.0,30.26,SSE,163,10.0,12.0,44,0.00,,,0.00,weatherlink.com 1.10,2013-10-10 06:35:00,
2013-10-10 00:50:00,55.7,32.0,30.25,SSE,163,5.0,11.0,41,0.00,,,0.00,weatherlink.com 1.10,2013-10-10 06:50:00,
2013-10-10 01:05:00,55.1,33.0,30.26,SSW,208,2.0,8.0,44,0.00,,,0.00,weatherlink.com 1.10,2013-10-10 07:05:00,
2013-10-10 01:20:00,52.4,33.0,30.26,SSW,207,0.0,5.0,48,0.00,,,0.00,weatherlink.com 1.10,2013-10-10 07:20:00,
2013-10-10 01:35:00,51.0,33.0,30.24,SSW,207,2.0,3.0,51,0.00,,,0.00,weatherlink.com 1.10,2013-10-10 07:35:00,
2013-10-10 01:50:00,50.9,34.0,30.23,SSW,204,0.0,4.0,52,0.00,,,0.00,weatherlink.com 1.10,2013-10-10 07:50:00,
2013-10-10 02:05:00,50.6,33.0,30.22,SSW,202,2.0,5.0,52,0.00,,,0.00,weatherlink.com 1.10,2013-10-10 08:05:00,
2013-10-10 02:20:00,52.8,38.0,30.22,South,187,3.0,6.0,58,0.00,,,0.00,weatherlink.com 1.10,2013-10-10 08:20:00,
2013-10-10 02:35:00,51.5,37.0,30.21,South,185,3.0,7.0,57,0.00,,,0.00,weatherlink.com 1.10,2013-10-10 08:35:00,
2013-10-10 02:50:00,53.6,40.0,30.22,South,181,0.0,7.0,60,0.01,,,0.01,weatherlink.com 1.10,2013-10-10 08:50:00,
2013-10-10 03:05:00,52.0,39.0,30.21,ESE,107,7.0,19.0,61,0.01,,,0.01,weatherlink.com 1.10,2013-10-10 09:05:00,
2013-10-10 03:20:00,53.3,37.0,30.20,SSE,157,5.0,8.0,55,0.01,,,0.01,weatherlink.com 1.10,2013-10-10 09:20:00,
2013-10-10 03:35:00,54.7,38.0,30.20,South,173,9.0,21.0,53,0.01,,,0.01,weatherlink.com 1.10,2013-10-10 09:35:00,
2013-10-10 03:50:00,55.0,38.0,30.20,South,180,13.0,20.0,53,0.01,,,0.02,weatherlink.com 1.10,2013-10-10 09:50:00,
2013-10-10 04:05:00,50.7,40.0,30.19,South,179,5.0,18.0,67,0.02,,,0.03,weatherlink.com 1.10,2013-10-10 10:05:00,
2013-10-10 04:20:00,50.5,40.0,30.21,South,182,1.0,12.0,68,0.02,,,0.03,weatherlink.com 1.10,2013-10-10 10:20:00,
2013-10-10 04:35:00,50.0,42.0,30.20,SSW,196,2.0,12.0,73,0.02,,,0.04,weatherlink.com 1.10,2013-10-10 10:35:00,
2013-10-10 04:50:00,49.4,40.0,30.18,SSE,167,4.0,9.0,71,0.02,,,0.04,weatherlink.com 1.10,2013-10-10 10:50:00,
2013-10-10 05:05:00,49.8,39.0,30.18,SSE,164,0.0,9.0,67,0.01,,,0.04,weatherlink.com 1.10,2013-10-10 11:05:00,
2013-10-10 05:20:00,49.1,40.0,30.17,SSE,164,0.0,2.0,70,0.01,,,0.04,weatherlink.com 1.10,2013-10-10 11:20:00,
2013-10-10 05:35:00,48.0,39.0,30.16,SSE,164,1.0,1.0,72,0.00,,,0.04,weatherlink.com 1.10,2013-10-10 11:35:00,
2013-10-10 05:50:00,47.4,39.0,30.16,SSE,164,0.0,5.0,72,0.00,,,0.04,weatherlink.com 1.10,2013-10-10 11:50:00,
2013-10-10 06:05:00,48.0,38.0,30.15,SSE,164,0.0,5.0,69,0.00,,,0.04,weatherlink.com 1.10,2013-10-10 12:05:00,
2013-10-10 06:20:00,48.3,38.0,30.15,SSE,164,0.0,2.0,67,0.00,,,0.04,weatherlink.com 1.10,2013-10-10 12:20:00,
2013-10-10 06:35:00,47.7,38.0,30.15,SSE,164,0.0,3.0,68,0.00,,,0.04,weatherlink.com 1.10,2013-10-10 12:35:00,
2013-10-10 06:50:00,47.0,37.0,30.15,SSE,164,2.0,2.0,68,0.00,,,0.04,weatherlink.com 1.10,2013-10-10 12:50:00,
2013-10-10 07:05:00,47.1,37.0,30.15,SSE,164,0.0,3.0,67,0.00,,,0.04,weatherlink.com 1.10,2013-10-10 13:05:00,
2013-10-10 07:20:00,46.4,36.0,30.14,SSE,164,0.0,0.0,67,0.00,,,0.04,weatherlink.com 1.10,2013-10-10 13:20:00,
2013-10-10 07:35:00,45.0,36.0,30.15,SSE,164,0.0,1.0,71,0.00,,,0.04,weatherlink.com 1.10,2013-10-10 13:35:00,
2013-10-10 07:50:00,44.7,36.0,30.15,SSE,164,2.0,5.0,72,0.00,,,0.04,weatherlink.com 1.10,2013-10-10 13:50:00,
2013-10-10 08:05:00,45.4,36.0,30.15,SSE,164,0.0,3.0,70,0.00,,,0.04,weatherlink.com 1.10,2013-10-10 14:05:00,
2013-10-10 08:20:00,48.6,38.0,30.15,SSE,164,0.0,3.0,67,0.00,,,0.04,weatherlink.com 1.10,2013-10-10 14:20:00,
2013-10-10 08:35:00,52.3,39.0,30.14,SSE,164,0.0,1.0,61,0.00,,,0.04,weatherlink.com 1.10,2013-10-10 14:35:00,
2013-10-10 08:50:00,54.6,39.0,30.14,SSE,164,0.0,1.0,55,0.00,,,0.04,weatherlink.com 1.10,2013-10-10 14:50:00,
2013-10-10 09:06:00,55.4,39.0,30.14,SSE,164,0.0,5.0,55,0.00,,,0.04,weatherlink.com 1.10,2013-10-10 15:06:00,
2013-10-10 09:21:00,55.4,40.0,30.13,SSE,164,0.0,5.0,57,0.00,,,0.04,weatherlink.com 1.10,2013-10-10 15:21:00,
2013-10-10 09:36:00,56.3,40.0,30.12,SSE,164,0.0,6.0,55,0.00,,,0.04,weatherlink.com 1.10,2013-10-10 15:36:00,
2013-10-10 09:51:00,57.7,39.0,30.11,NNE,18,4.0,8.0,51,0.00,,,0.04,weatherlink.com 1.10,2013-10-10 15:51:00,
2013-10-10 10:06:00,59.0,41.0,30.10,NNE,30,1.0,5.0,51,0.00,,,0.04,weatherlink.com 1.10,2013-10-10 16:06:00,
2013-10-10 10:21:00,60.6,36.0,30.09,South,187,10.0,12.0,40,0.00,,,0.04,weatherlink.com 1.10,2013-10-10 16:21:00,
2013-10-10 10:36:00,62.2,34.0,30.08,SSW,209,7.0,19.0,35,0.00,,,0.04,weatherlink.com 1.10,2013-10-10 16:36:00,
2013-10-10 10:51:00,63.8,32.0,30.07,South,187,12.0,17.0,31,0.00,,,0.04,weatherlink.com 1.10,2013-10-10 16:51:00,
2013-10-10 11:06:00,63.7,32.0,30.07,South,185,15.0,26.0,31,0.00,,,0.04,weatherlink.com 1.10,2013-10-10 17:06:00,
2013-10-10 11:21:00,61.1,31.0,30.06,SW,232,5.0,19.0,32,0.00,,,0.04,weatherlink.com 1.10,2013-10-10 17:21:00,
2013-10-10 11:36:00,60.9,30.0,30.05,SW,225,10.0,22.0,31,0.00,,,0.04,weatherlink.com 1.10,2013-10-10 17:36:00,
2013-10-10 11:51:00,61.9,30.0,30.03,SW,216,15.0,25.0,30,0.00,,,0.04,weatherlink.com 1.10,2013-10-10 17:51:00,
2013-10-10 12:06:00,63.5,31.0,30.02,SW,225,21.0,26.0,29,0.00,,,0.04,weatherlink.com 1.10,2013-10-10 18:06:00,
2013-10-10 12:21:00,64.8,33.0,30.01,SSW,199,6.0,24.0,31,0.00,,,0.04,weatherlink.com 1.10,2013-10-10 18:21:00,
2013-10-10 12:36:00,64.4,33.0,29.98,South,183,16.0,25.0,31,0.00,,,0.04,weatherlink.com 1.10,2013-10-10 18:36:00,
2013-10-10 12:51:00,62.2,32.0,29.96,SW,226,15.0,30.0,32,0.00,,,0.04,weatherlink.com 1.10,2013-10-10 18:51:00,
2013-10-10 13:06:00,61.4,32.0,29.95,SSW,209,12.0,24.0,33,0.00,,,0.04,weatherlink.com 1.10,2013-10-10 19:06:00,
2013-10-10 13:21:00,60.4,32.0,29.96,South,187,17.0,34.0,34,0.00,,,0.04,weatherlink.com 1.10,2013-10-10 19:21:00,
2013-10-10 13:36:00,60.2,32.0,29.96,SW,223,14.0,24.0,34,0.00,,,0.04,weatherlink.com 1.10,2013-10-10 19:36:00,
2013-10-10 13:51:00,59.3,33.0,29.99,SW,215,10.0,22.0,37,0.00,,,0.04,weatherlink.com 1.10,2013-10-10 19:51:00,
2013-10-10 14:06:00,49.6,40.0,30.05,SW,223,15.0,27.0,70,0.00,,,0.04,weatherlink.com 1.10,2013-10-10 20:06:00,
2013-10-10 14:21:00,44.8,41.0,30.07,SW,221,2.0,20.0,85,0.04,,,0.08,weatherlink.com 1.10,2013-10-10 20:21:00,
2013-10-10 14:36:00,41.8,38.0,30.11,West,267,9.0,18.0,86,0.09,,,0.13,weatherlink.com 1.10,2013-10-10 20:36:00,
2013-10-10 14:51:00,41.4,39.0,30.12,West,264,2.0,13.0,90,0.14,,,0.18,weatherlink.com 1.10,2013-10-10 20:51:00,
2013-10-10 15:06:00,40.6,37.0,30.14,SW,221,2.0,18.0,88,0.20,,,0.24,weatherlink.com 1.10,2013-10-10 21:06:00,
2013-10-10 15:22:00,39.1,36.0,30.13,SSW,211,3.0,8.0,88,0.23,,,0.31,weatherlink.com 1.10,2013-10-10 21:22:00,
2013-10-10 15:37:00,38.0,35.0,30.12,SE,130,11.0,18.0,89,0.20,,,0.34,weatherlink.com 1.10,2013-10-10 21:37:00,
2013-10-10 15:52:00,39.8,37.0,30.06,South,180,16.0,16.0,88,0.16,,,0.34,weatherlink.com 1.10,2013-10-10 21:52:00,
2013-10-10 16:07:00,44.1,39.0,30.05,SW,229,11.0,25.0,81,0.10,,,0.34,weatherlink.com 1.10,2013-10-10 22:07:00,
2013-10-10 16:22:00,44.5,37.0,30.06,SW,230,5.0,25.0,75,0.03,,,0.34,weatherlink.com 1.10,2013-10-10 22:22:00,
2013-10-10 16:37:00,39.7,34.0,30.15,West,276,6.0,30.0,80,0.01,,,0.35,weatherlink.com 1.10,2013-10-10 22:37:00,
2013-10-10 16:52:00,34.4,32.0,30.15,WSW,257,2.0,10.0,89,0.02,,,0.36,weatherlink.com 1.10,2013-10-10 22:52:00,
2013-10-10 17:07:00,35.3,33.0,30.15,WSW,256,0.0,6.0,92,0.04,,,0.38,weatherlink.com 1.10,2013-10-10 23:07:00,
2013-10-10 17:22:00,38.6,37.0,30.12,SW,234,4.0,11.0,94,0.06,,,0.40,weatherlink.com 1.10,2013-10-10 23:22:00,
2013-10-10 17:37:00,40.0,37.0,30.14,SW,233,2.0,11.0,90,0.05,,,0.40,weatherlink.com 1.10,2013-10-10 23:37:00,
2013-10-10 17:52:00,39.5,37.0,30.14,SW,234,3.0,10.0,89,0.05,,,0.41,weatherlink.com 1.10,2013-10-10 23:52:00,
2013-10-10 18:07:00,39.6,36.0,30.15,WSW,257,4.0,11.0,88,0.03,,,0.41,weatherlink.com 1.10,2013-10-11 00:07:00,
2013-10-10 18:22:00,40.1,37.0,30.16,WSW,252,3.0,8.0,88,0.01,,,0.41,weatherlink.com 1.10,2013-10-11 00:22:00,
2013-10-10 18:37:00,39.7,37.0,30.17,WSW,257,0.0,9.0,88,0.01,,,0.41,weatherlink.com 1.10,2013-10-11 00:37:00,
2013-10-10 18:52:00,39.1,36.0,30.18,WSW,257,0.0,6.0,88,0.00,,,0.41,weatherlink.com 1.10,2013-10-11 00:52:00,
2013-10-10 19:07:00,38.7,35.0,30.20,West,267,4.0,14.0,85,0.00,,,0.41,weatherlink.com 1.10,2013-10-11 01:07:00,
2013-10-10 19:22:00,38.2,34.0,30.21,West,279,2.0,15.0,85,0.00,,,0.41,weatherlink.com 1.10,2013-10-11 01:22:00,
2013-10-10 19:37:00,37.9,34.0,30.22,West,259,6.0,13.0,84,0.00,,,0.41,weatherlink.com 1.10,2013-10-11 01:37:00,
2013-10-10 19:52:00,37.5,33.0,30.23,WSW,249,2.0,10.0,84,0.00,,,0.41,weatherlink.com 1.10,2013-10-11 01:52:00,
2013-10-10 20:07:00,37.0,33.0,30.24,WSW,249,0.0,5.0,84,0.00,,,0.41,weatherlink.com 1.10,2013-10-11 02:07:00,
2013-10-10 20:22:00,37.1,32.0,30.25,West,259,3.0,10.0,82,0.00,,,0.41,weatherlink.com 1.10,2013-10-11 02:22:00,
2013-10-10 20:37:00,37.1,30.0,30.26,West,274,8.0,17.0,75,0.00,,,0.41,weatherlink.com 1.10,2013-10-11 02:37:00,
2013-10-10 20:52:00,36.8,30.0,30.26,West,271,6.0,16.0,75,0.00,,,0.41,weatherlink.com 1.10,2013-10-11 02:52:00,
2013-10-10 21:07:00,36.4,30.0,30.27,West,261,3.0,12.0,76,0.00,,,0.41,weatherlink.com 1.10,2013-10-11 03:07:00,
2013-10-10 21:22:00,36.3,29.0,30.27,West,267,6.0,14.0,74,0.00,,,0.41,weatherlink.com 1.10,2013-10-11 03:22:00,
2013-10-10 21:37:00,36.5,30.0,30.29,WSW,258,4.0,11.0,76,0.00,,,0.41,weatherlink.com 1.10,2013-10-11 03:37:00,
2013-10-10 21:52:00,36.3,29.0,30.29,WSW,258,11.0,13.0,76,0.00,,,0.41,weatherlink.com 1.10,2013-10-11 03:52:00,
2013-10-10 22:07:00,36.4,29.0,30.30,West,264,11.0,15.0,74,0.00,,,0.41,weatherlink.com 1.10,2013-10-11 04:07:00,
2013-10-10 22:22:00,37.0,28.0,30.31,West,269,14.0,14.0,71,0.00,,,0.41,weatherlink.com 1.10,2013-10-11 04:22:00,
2013-10-10 22:37:00,36.6,28.0,30.31,WSW,252,5.0,16.0,71,0.00,,,0.41,weatherlink.com 1.10,2013-10-11 04:37:00,
2013-10-10 22:52:00,35.8,28.0,30.31,WSW,248,5.0,12.0,74,0.00,,,0.41,weatherlink.com 1.10,2013-10-11 04:52:00,
2013-10-10 23:07:00,35.6,28.0,30.32,SW,223,4.0,15.0,73,0.00,,,0.41,weatherlink.com 1.10,2013-10-11 05:07:00,
2013-10-10 23:22:00,35.2,28.0,30.33,SW,232,11.0,13.0,74,0.00,,,0.41,weatherlink.com 1.10,2013-10-11 05:22:00,
2013-10-10 23:37:00,35.2,28.0,30.34,SW,221,0.0,16.0,74,0.00,,,0.41,weatherlink.com 1.10,2013-10-11 05:37:00,
2013-10-10 23:52:00,35.0,28.0,30.34,SW,221,0.0,5.0,74,0.00,,,0.41,weatherlink.com 1.10,2013-10-11 05:52:00,